createdAt,value
2022-10-27T00:01:43.955Z,100951.97
2022-10-27T00:04:17.568Z,100960.00
2022-10-27T00:06:51.082Z,100959.13
2022-10-27T00:09:24.573Z,100960.03
2022-10-27T00:11:58.111Z,100961.97
2022-10-27T00:14:33.020Z,100963.94
2022-10-27T00:17:06.535Z,100968.44
2022-10-27T00:19:39.952Z,100964.97
2022-10-27T00:22:13.363Z,100970.31
2022-10-27T00:24:46.797Z,100972.97
2022-10-27T00:27:20.272Z,100969.38
2022-10-27T00:29:55.135Z,100978.31
2022-10-27T00:32:28.521Z,100979.22
2022-10-27T00:35:01.965Z,100977.44
2022-10-27T00:37:35.414Z,100977.41
2022-10-27T00:40:09.942Z,100974.69
2022-10-27T00:42:49.070Z,100973.78
2022-10-27T00:45:23.943Z,100971.97
2022-10-27T00:47:57.365Z,100979.06
2022-10-27T00:50:30.735Z,100984.41
2022-10-27T00:53:04.318Z,100987.09
2022-10-27T00:55:41.316Z,100986.22
2022-10-27T00:58:20.197Z,100980.97
2022-10-27T01:00:55.104Z,100981.94
2022-10-27T01:03:28.810Z,100986.31
2022-10-27T01:06:03.006Z,100980.94
2022-10-27T01:08:37.299Z,100981.88
2022-10-27T01:11:10.702Z,100982.78
2022-10-27T01:13:44.412Z,100981.97
2022-10-27T01:16:27.265Z,100976.75
2022-10-27T01:19:13.569Z,100975.13
2022-10-27T01:21:59.348Z,100968.94
2022-10-27T01:25:01.086Z,100970.75
2022-10-27T01:28:10.047Z,100969.19
2022-10-27T01:31:02.963Z,100968.44
2022-10-27T01:33:41.872Z,100968.63
2022-10-27T01:36:21.857Z,100968.69
2022-10-27T01:39:00.636Z,100969.53
2022-10-27T01:44:24.251Z,100967.78
2022-10-27T01:46:59.630Z,100971.34
2022-10-27T01:49:39.888Z,100968.69
2022-10-27T01:52:40.314Z,100973.97
2022-10-27T01:55:21.913Z,100974.94
2022-10-27T01:58:13.521Z,100968.72
2022-10-27T02:00:59.868Z,100974.94
2022-10-27T02:03:41.228Z,100974.13
2022-10-27T02:06:23.991Z,100988.28
2022-10-27T02:09:05.618Z,100986.56
2022-10-27T02:11:43.357Z,100980.31
2022-10-27T02:14:17.444Z,100976.78
2022-10-27T02:16:54.733Z,100980.28
2022-10-27T02:19:34.689Z,100982.03
2022-10-27T02:22:08.696Z,100986.56
2022-10-27T02:24:42.330Z,100989.22
2022-10-27T02:27:24.147Z,100986.50
2022-10-27T02:30:00.431Z,100991.03
2022-10-27T02:32:35.244Z,100990.22
2022-10-27T02:35:12.473Z,100980.56
2022-10-27T02:37:47.186Z,100989.50
2022-10-27T02:40:20.772Z,100984.22
2022-10-27T02:42:54.377Z,100987.81
2022-10-27T02:45:27.989Z,100986.88
2022-10-27T02:48:01.412Z,100990.41
2022-10-27T02:50:36.526Z,100994.00
2022-10-27T02:53:10.061Z,100997.63
2022-10-27T02:55:43.613Z,100992.28
2022-10-27T02:58:17.106Z,100989.66
2022-10-27T03:00:55.913Z,100987.94
2022-10-27T03:03:29.572Z,100982.66
2022-10-27T03:06:04.502Z,100990.66
2022-10-27T03:08:37.961Z,100991.66
2022-10-27T03:11:11.529Z,100992.59
2022-10-27T03:13:44.988Z,100994.41
2022-10-27T03:16:18.637Z,100994.47
2022-10-27T03:18:52.344Z,100993.56
2022-10-27T03:21:27.262Z,100988.41
2022-10-27T03:24:00.941Z,100996.50
2022-10-27T03:26:34.567Z,100990.38
2022-10-27T03:29:11.153Z,100995.78
2022-10-27T03:31:44.823Z,100995.78
2022-10-27T03:34:20.262Z,101000.25
2022-10-27T03:36:56.370Z,101002.03
2022-10-27T03:39:29.929Z,101006.41
2022-10-27T03:42:03.682Z,101006.38
2022-10-27T03:44:37.129Z,101011.66
2022-10-27T03:47:11.727Z,101009.88
2022-10-27T03:49:45.198Z,101015.16
2022-10-27T03:52:22.044Z,101010.75
2022-10-27T03:54:55.484Z,101010.78
2022-10-27T03:57:29.024Z,101009.97
2022-10-27T04:00:02.444Z,101012.66
2022-10-27T04:02:45.244Z,101012.66
2022-10-27T04:05:18.728Z,101006.41
2022-10-27T04:07:53.776Z,101008.22
2022-10-27T04:10:27.629Z,101011.78
2022-10-27T04:13:01.238Z,101020.72
2022-10-27T04:15:34.700Z,101013.66
2022-10-27T04:18:08.355Z,101018.94
2022-10-27T04:20:42.096Z,101022.50
2022-10-27T04:23:16.679Z,101025.75
2022-10-27T04:25:49.805Z,101024.81
2022-10-27T04:28:23.537Z,101026.97
2022-10-27T04:30:57.081Z,101032.34
2022-10-27T04:33:30.607Z,101025.31
2022-10-27T04:36:05.597Z,101022.69
2022-10-27T04:38:40.994Z,101027.13
2022-10-27T04:41:14.456Z,101027.13
2022-10-27T04:46:25.567Z,101028.09
2022-10-27T04:48:59.195Z,101027.25
2022-10-27T04:51:32.677Z,101033.53
2022-10-27T04:54:07.814Z,101030.94
2022-10-27T04:56:41.311Z,101030.94
2022-10-27T04:59:15.074Z,101035.38
2022-10-27T05:01:48.668Z,101036.28
2022-10-27T05:04:22.186Z,101040.72
2022-10-27T05:06:55.684Z,101042.53
2022-10-27T05:09:30.718Z,101045.22
2022-10-27T05:12:04.250Z,101050.59
2022-10-27T05:14:39.712Z,101058.69
2022-10-27T05:17:16.800Z,101063.19
2022-10-27T05:19:52.553Z,101059.72
2022-10-27T05:22:25.995Z,101069.53
2022-10-27T05:25:00.799Z,101060.66
2022-10-27T05:27:34.427Z,101061.56
2022-10-27T05:30:09.997Z,101060.72
2022-10-27T05:32:44.997Z,101066.09
2022-10-27T05:35:20.877Z,101068.78
2022-10-27T05:37:54.601Z,101079.44
2022-10-27T05:40:34.665Z,101075.91
2022-10-27T05:43:08.217Z,101074.13
2022-10-27T05:45:41.747Z,101084.75
2022-10-27T05:48:15.222Z,101085.56
2022-10-27T05:50:53.983Z,101094.47
2022-10-27T05:53:27.398Z,101091.78
2022-10-27T05:56:02.289Z,101093.47
2022-10-27T05:58:38.964Z,101087.22
2022-10-27T06:01:12.911Z,101094.38
2022-10-27T06:03:46.491Z,101092.53
2022-10-27T06:06:19.874Z,101090.63
2022-10-27T06:08:53.368Z,101101.16
2022-10-27T06:11:28.305Z,101097.59
2022-10-27T06:14:01.778Z,101094.81
2022-10-27T06:16:35.403Z,101102.69
2022-10-27T06:19:08.832Z,101110.47
2022-10-27T06:21:42.245Z,101108.47
2022-10-27T06:24:15.765Z,101111.78
2022-10-27T06:26:53.194Z,101112.44
2022-10-27T06:29:29.591Z,101114.00
2022-10-27T06:32:03.214Z,101111.13
2022-10-27T06:34:36.731Z,101117.03
2022-10-27T06:37:10.331Z,101114.13
2022-10-27T06:39:44.213Z,101120.94
2022-10-27T06:42:22.478Z,101127.38
2022-10-27T06:44:57.569Z,101122.91
2022-10-27T06:47:36.785Z,101122.69
2022-10-27T06:50:13.918Z,101123.28
2022-10-27T06:52:51.629Z,101120.25
2022-10-27T06:55:28.865Z,101127.81
2022-10-27T06:58:03.780Z,101123.72
2022-10-27T07:00:38.096Z,101132.00
2022-10-27T07:03:12.226Z,101134.16
2022-10-27T07:05:45.690Z,101136.19
2022-10-27T07:08:19.185Z,101135.41
2022-10-27T07:10:52.711Z,101137.13
2022-10-27T07:13:29.736Z,101139.44
2022-10-27T07:16:03.485Z,101136.88
2022-10-27T07:18:40.028Z,101135.31
2022-10-27T07:21:14.364Z,101138.03
2022-10-27T07:23:49.973Z,101145.22
2022-10-27T07:26:26.162Z,101152.00
2022-10-27T07:29:00.988Z,101153.75
2022-10-27T07:31:34.463Z,101159.22
2022-10-27T07:34:07.881Z,101162.16
2022-10-27T07:36:41.324Z,101170.53
2022-10-27T07:39:14.721Z,101176.25
2022-10-27T07:41:48.164Z,101168.72
2022-10-27T07:44:28.524Z,101171.91
2022-10-27T07:47:01.973Z,101168.69
2022-10-27T07:49:43.377Z,101168.13
2022-10-27T07:52:17.259Z,101170.41
2022-10-27T07:54:56.003Z,101171.94
2022-10-27T07:57:29.406Z,101171.31
2022-10-27T08:00:04.439Z,101168.38
2022-10-27T08:02:46.075Z,101175.41
2022-10-27T08:05:19.862Z,101180.34
2022-10-27T08:07:53.776Z,101179.97
2022-10-27T08:10:28.040Z,101182.41
2022-10-27T08:13:01.588Z,101175.91
2022-10-27T08:15:37.551Z,101170.09
2022-10-27T08:18:15.031Z,101185.41
2022-10-27T08:20:49.370Z,101181.00
2022-10-27T08:23:25.792Z,101178.19
2022-10-27T08:25:59.457Z,101180.44
2022-10-27T08:28:32.940Z,101185.13
2022-10-27T08:31:08.174Z,101186.53
2022-10-27T08:33:44.361Z,101186.19
2022-10-27T08:36:18.567Z,101191.41
2022-10-27T08:38:52.001Z,101199.19
2022-10-27T08:41:32.062Z,101197.16
2022-10-27T08:44:21.576Z,101188.84
2022-10-27T08:47:00.855Z,101192.63
2022-10-27T08:49:49.019Z,101193.13
2022-10-27T08:52:29.350Z,101196.97
2022-10-27T08:55:19.131Z,101193.88
2022-10-27T08:58:01.746Z,101199.69
2022-10-27T09:00:45.816Z,101196.56
2022-10-27T09:03:38.745Z,101199.56
2022-10-27T09:06:19.434Z,101195.09
2022-10-27T09:09:01.632Z,101193.78
2022-10-27T09:11:46.033Z,101197.41
2022-10-27T09:14:34.790Z,101192.03
2022-10-27T09:17:13.863Z,101193.81
2022-10-27T09:19:53.555Z,101196.78
2022-10-27T09:22:27.994Z,101185.63
2022-10-27T09:25:06.086Z,101189.31
2022-10-27T09:27:40.598Z,101188.03
2022-10-27T09:30:15.916Z,101192.28
2022-10-27T09:32:53.874Z,101201.69
2022-10-27T09:35:30.172Z,101206.28
2022-10-27T09:38:04.641Z,101202.78
2022-10-27T09:40:38.902Z,101206.75
2022-10-27T09:43:12.851Z,101203.44
2022-10-27T09:45:49.745Z,101205.16
2022-10-27T09:48:26.848Z,101206.22
2022-10-27T09:51:08.301Z,101204.25
2022-10-27T09:53:44.963Z,101204.47
2022-10-27T09:56:24.837Z,101207.81
2022-10-27T09:59:02.823Z,101207.94
2022-10-27T10:01:57.507Z,101202.41
2022-10-27T10:04:33.228Z,101203.31
2022-10-27T10:07:08.980Z,101202.59
2022-10-27T10:09:42.892Z,101208.75
2022-10-27T10:12:23.874Z,101207.91
2022-10-27T10:15:21.540Z,101205.25
2022-10-27T10:18:00.178Z,101202.72
2022-10-27T10:23:24.923Z,101208.88
2022-10-27T10:26:00.130Z,101206.00
2022-10-27T10:28:37.175Z,101204.88
2022-10-27T10:31:14.000Z,101206.34
2022-10-27T10:33:49.216Z,101201.22
2022-10-27T10:36:29.284Z,101189.13
2022-10-27T10:39:21.976Z,101189.56
2022-10-27T10:42:19.364Z,101185.88
2022-10-27T10:45:11.438Z,101183.19
2022-10-27T10:47:49.475Z,101175.94
2022-10-27T10:50:24.112Z,101179.34
2022-10-27T10:53:00.444Z,101173.09
2022-10-27T10:55:39.652Z,101182.88
2022-10-27T10:58:17.314Z,101179.34
2022-10-27T11:00:56.224Z,101176.63
2022-10-27T11:03:34.488Z,101178.38
2022-10-27T11:06:19.068Z,101175.50
2022-10-27T11:09:00.683Z,101172.59
2022-10-27T11:11:45.273Z,101183.13
2022-10-27T11:14:20.178Z,101185.34
2022-10-27T11:16:57.343Z,101195.56
2022-10-27T11:19:37.163Z,101195.88
2022-10-27T11:22:17.014Z,101196.06
2022-10-27T11:24:57.294Z,101197.13
2022-10-27T11:27:41.131Z,101193.91
2022-10-27T11:30:23.206Z,101187.97
2022-10-27T11:33:09.873Z,101185.19
2022-10-27T11:35:51.760Z,101186.59
2022-10-27T11:38:34.477Z,101181.03
2022-10-27T11:41:17.107Z,101185.09
2022-10-27T11:44:04.658Z,101189.06
2022-10-27T11:46:45.907Z,101184.38
2022-10-27T11:49:29.007Z,101185.69
2022-10-27T11:52:10.766Z,101194.31
2022-10-27T11:54:44.447Z,101191.50
2022-10-27T11:57:40.045Z,101175.97
2022-10-27T12:00:21.797Z,101177.44
2022-10-27T12:03:54.554Z,101171.88
2022-10-27T12:06:40.204Z,101164.88
2022-10-27T12:09:22.954Z,101171.47
2022-10-27T12:12:06.356Z,101171.59
2022-10-27T12:14:47.184Z,101170.69
2022-10-27T12:17:31.803Z,101170.72
2022-10-27T12:20:08.980Z,101172.88
2022-10-27T12:22:48.210Z,101176.91
2022-10-27T12:25:25.272Z,101177.59
2022-10-27T12:28:02.256Z,101168.66
2022-10-27T12:30:37.891Z,101174.56
2022-10-27T12:33:20.264Z,101176.78
2022-10-27T12:35:57.405Z,101172.91
2022-10-27T12:38:39.018Z,101168.56
2022-10-27T12:41:29.028Z,101168.09
2022-10-27T12:44:18.980Z,101170.50
2022-10-27T12:47:15.606Z,101163.41
2022-10-27T12:50:03.276Z,101166.53
2022-10-27T12:52:44.588Z,101163.84
2022-10-27T12:55:32.810Z,101167.28
2022-10-27T12:58:11.418Z,101165.25
2022-10-27T13:00:51.142Z,101168.09
2022-10-27T13:03:55.626Z,101169.81
2022-10-27T13:06:48.634Z,101166.34
2022-10-27T13:10:05.427Z,101167.06
2022-10-27T13:12:53.482Z,101174.66
2022-10-27T13:15:55.274Z,101169.34
2022-10-27T13:18:51.832Z,101162.03
2022-10-27T13:21:34.674Z,101171.38
2022-10-27T13:24:24.396Z,101165.44
2022-10-27T13:27:05.514Z,101174.94
2022-10-27T13:29:44.319Z,101173.47
2022-10-27T13:32:19.543Z,101169.03
2022-10-27T13:35:22.775Z,101163.47
2022-10-27T13:38:28.568Z,101163.25
2022-10-27T13:41:05.499Z,101153.78
2022-10-27T13:43:50.161Z,101153.00
2022-10-27T13:47:10.944Z,101152.25
2022-10-27T13:50:04.840Z,101160.13
2022-10-27T13:52:40.646Z,101160.69
2022-10-27T13:55:36.236Z,101158.59
2022-10-27T13:58:38.429Z,101161.59
2022-10-27T14:01:36.613Z,101171.19
2022-10-27T14:04:27.372Z,101164.78
2022-10-27T14:07:03.121Z,101167.31
2022-10-27T14:09:40.007Z,101174.38
2022-10-27T14:12:20.959Z,101170.25
2022-10-27T14:15:04.018Z,101173.44
2022-10-27T14:17:37.873Z,101180.31
2022-10-27T14:20:20.546Z,101189.28
2022-10-27T14:22:58.770Z,101181.84
2022-10-27T14:25:33.386Z,101180.47
2022-10-27T14:28:15.262Z,101182.78
2022-10-27T14:31:10.360Z,101185.00
2022-10-27T14:33:46.708Z,101188.00
2022-10-27T14:36:33.440Z,101186.41
2022-10-27T14:39:24.094Z,101183.34
2022-10-27T14:42:04.425Z,101186.75
2022-10-27T14:44:37.995Z,101190.78
2022-10-27T14:47:16.228Z,101187.53
2022-10-27T14:49:52.550Z,101182.41
2022-10-27T14:52:35.649Z,101192.50
2022-10-27T14:55:19.512Z,101196.25
2022-10-27T14:57:54.752Z,101199.09
2022-10-27T15:00:32.456Z,101197.44
2022-10-27T15:03:09.004Z,101184.97
2022-10-27T15:05:47.294Z,101188.47
2022-10-27T15:08:22.934Z,101191.19
2022-10-27T15:11:02.480Z,101199.19
2022-10-27T15:13:36.935Z,101191.16
2022-10-27T15:16:17.806Z,101192.13
2022-10-27T15:18:53.217Z,101196.34
2022-10-27T15:21:28.289Z,101197.97
2022-10-27T15:24:09.695Z,101200.31
2022-10-27T15:26:43.713Z,101201.91
2022-10-27T15:29:20.686Z,101207.84
2022-10-27T15:32:11.682Z,101212.91
2022-10-27T15:34:46.970Z,101204.50
2022-10-27T15:37:30.535Z,101206.88
2022-10-27T15:40:36.462Z,101202.91
2022-10-27T15:43:27.430Z,101209.13
2022-10-27T15:46:13.077Z,101203.56
2022-10-27T15:48:52.921Z,101203.28
2022-10-27T15:51:44.165Z,101204.66
2022-10-27T15:54:26.290Z,101205.34
2022-10-27T15:57:02.411Z,101202.38
2022-10-27T15:59:42.659Z,101211.03
2022-10-27T16:02:46.226Z,101212.25
2022-10-27T16:05:55.026Z,101212.06
2022-10-27T16:08:41.967Z,101222.66
2022-10-27T16:11:16.411Z,101222.34
2022-10-27T16:13:53.455Z,101223.72
2022-10-27T16:16:27.646Z,101225.88
2022-10-27T16:19:03.257Z,101232.63
2022-10-27T16:21:36.742Z,101229.44
2022-10-27T16:24:16.310Z,101237.28
2022-10-27T16:26:53.074Z,101226.53
2022-10-27T16:29:28.119Z,101225.97
2022-10-27T16:32:02.898Z,101228.19
2022-10-27T16:34:36.465Z,101231.31
2022-10-27T16:37:19.021Z,101234.28
2022-10-27T16:39:56.137Z,101235.59
2022-10-27T16:42:31.675Z,101238.63
2022-10-27T16:45:05.602Z,101232.66
2022-10-27T16:47:39.313Z,101233.75
2022-10-27T16:50:13.198Z,101235.94
2022-10-27T16:52:53.481Z,101238.13
2022-10-27T16:55:28.498Z,101241.16
2022-10-27T16:58:04.041Z,101237.09
2022-10-27T17:00:40.660Z,101232.91
2022-10-27T17:03:16.531Z,101237.59
2022-10-27T17:05:50.844Z,101242.38
2022-10-27T17:08:29.050Z,101239.84
2022-10-27T17:11:08.663Z,101249.81
2022-10-27T17:13:44.992Z,101245.50
2022-10-27T17:16:19.481Z,101241.13
2022-10-27T17:18:54.087Z,101237.66
2022-10-27T17:21:32.655Z,101239.56
2022-10-27T17:24:06.880Z,101246.94
2022-10-27T17:26:41.736Z,101251.63
2022-10-27T17:29:15.443Z,101259.88
2022-10-27T17:31:48.992Z,101251.00
2022-10-27T17:34:22.206Z,101255.09
2022-10-27T17:36:58.235Z,101257.59
2022-10-27T17:39:31.461Z,101256.31
2022-10-27T17:42:09.820Z,101253.41
2022-10-27T17:44:43.464Z,101259.06
2022-10-27T17:47:16.795Z,101253.19
2022-10-27T17:49:55.383Z,101250.19
2022-10-27T17:52:33.769Z,101247.72
2022-10-27T17:55:11.122Z,101249.59
2022-10-27T17:57:48.008Z,101251.41
2022-10-27T18:00:26.772Z,101255.94
2022-10-27T18:03:00.486Z,101261.41
2022-10-27T18:05:45.742Z,101258.78
2022-10-27T18:08:19.487Z,101253.50
2022-10-27T18:10:53.359Z,101250.03
2022-10-27T18:13:33.941Z,101255.47
2022-10-27T18:16:11.742Z,101250.97
2022-10-27T18:18:45.551Z,101257.44
2022-10-27T18:21:19.632Z,101249.69
2022-10-27T18:23:56.250Z,101245.44
2022-10-27T18:26:30.939Z,101248.28
2022-10-27T18:29:06.707Z,101244.88
2022-10-27T18:31:41.409Z,101248.59
2022-10-27T18:34:17.053Z,101244.22
2022-10-27T18:36:50.456Z,101244.41
2022-10-27T18:39:24.345Z,101251.66
2022-10-27T18:44:37.845Z,101250.19
2022-10-27T18:47:11.280Z,101254.81
2022-10-27T18:49:48.771Z,101249.63
2022-10-27T18:52:22.502Z,101257.94
2022-10-27T18:54:56.081Z,101260.78
2022-10-27T18:57:32.647Z,101261.00
2022-10-27T19:00:09.680Z,101254.91
2022-10-27T19:02:43.257Z,101247.94
2022-10-27T19:05:21.768Z,101248.94
2022-10-27T19:07:55.372Z,101250.00
2022-10-27T19:10:28.458Z,101253.25
2022-10-27T19:13:01.949Z,101262.69
2022-10-27T19:15:37.000Z,101256.59
2022-10-27T19:18:10.819Z,101258.56
2022-10-27T19:20:45.648Z,101252.41
2022-10-27T19:23:19.060Z,101259.75
2022-10-27T19:25:53.272Z,101253.56
2022-10-27T19:28:26.706Z,101257.31
2022-10-27T19:31:01.814Z,101251.09
2022-10-27T19:33:35.333Z,101254.84
2022-10-27T19:36:10.853Z,101252.28
2022-10-27T19:38:44.439Z,101249.75
2022-10-27T19:41:20.108Z,101247.19
2022-10-27T19:43:55.925Z,101258.00
2022-10-27T19:46:31.346Z,101253.63
2022-10-27T19:49:06.380Z,101248.53
2022-10-27T19:51:43.000Z,101249.44
2022-10-27T19:54:20.830Z,101245.00
2022-10-27T19:56:54.421Z,101248.53
2022-10-27T19:59:27.859Z,101250.38
2022-10-27T20:02:05.363Z,101245.13
2022-10-27T20:04:39.987Z,101255.09
2022-10-27T20:07:13.405Z,101252.50
2022-10-27T20:09:46.834Z,101252.56
2022-10-27T20:12:21.492Z,101253.56
2022-10-27T20:14:54.926Z,101269.75
2022-10-27T20:17:29.841Z,101260.91
2022-10-27T20:20:03.260Z,101264.66
2022-10-27T20:22:36.799Z,101262.06
2022-10-27T20:25:10.889Z,101265.78
2022-10-27T20:27:46.058Z,101261.34
2022-10-27T20:30:19.533Z,101265.84
2022-10-27T20:32:54.573Z,101264.97
2022-10-27T20:35:28.115Z,101266.78
2022-10-27T20:38:07.059Z,101271.28
2022-10-27T20:40:43.607Z,101274.91
2022-10-27T20:43:17.079Z,101278.50
2022-10-27T20:45:56.218Z,101278.56
2022-10-27T20:48:31.326Z,101278.63
2022-10-27T20:51:11.807Z,101272.44
2022-10-27T20:53:56.546Z,101277.94
2022-10-27T20:56:31.663Z,101278.00
2022-10-27T20:59:06.274Z,101275.50
2022-10-27T21:01:41.385Z,101286.31
2022-10-27T21:04:18.158Z,101277.50
2022-10-27T21:06:53.091Z,101271.34
2022-10-27T21:09:26.613Z,101276.63
2022-10-27T21:12:00.471Z,101271.41
2022-10-27T21:14:36.852Z,101275.84
2022-10-27T21:17:17.055Z,101274.09
2022-10-27T21:20:13.325Z,101276.69
2022-10-27T21:22:46.875Z,101275.09
2022-10-27T21:25:22.901Z,101272.47
2022-10-27T21:27:57.408Z,101278.88
2022-10-27T21:30:30.962Z,101278.88
2022-10-27T21:33:04.228Z,101270.41
2022-10-27T21:35:39.460Z,101267.41
2022-10-27T21:38:13.037Z,101275.66
2022-10-27T21:40:51.583Z,101277.53
2022-10-27T21:43:25.072Z,101272.28
2022-10-27T21:45:59.238Z,101267.88
2022-10-27T21:48:33.331Z,101265.19
2022-10-27T21:51:13.334Z,101263.31
2022-10-27T21:53:47.035Z,101264.31
2022-10-27T21:56:20.307Z,101266.50
2022-10-27T21:58:58.415Z,101260.81
2022-10-27T22:01:35.951Z,101256.53
2022-10-27T22:04:09.807Z,101260.28
2022-10-27T22:06:44.518Z,101257.19
2022-10-27T22:09:23.450Z,101259.50
2022-10-27T22:11:59.869Z,101255.19
2022-10-27T22:14:36.814Z,101258.91
2022-10-27T22:17:10.384Z,101250.09
2022-10-27T22:19:43.898Z,101255.53
2022-10-27T22:22:21.308Z,101248.44
2022-10-27T22:24:59.375Z,101258.34
2022-10-27T22:27:33.536Z,101249.50
2022-10-27T22:30:11.023Z,101247.75
2022-10-27T22:32:49.858Z,101245.16
2022-10-27T22:35:23.368Z,101246.94
2022-10-27T22:38:00.848Z,101248.81
2022-10-27T22:40:34.345Z,101243.59
2022-10-27T22:43:08.933Z,101246.34
2022-10-27T22:45:44.748Z,101242.06
2022-10-27T22:48:18.692Z,101235.03
2022-10-27T22:50:59.726Z,101227.06
2022-10-27T22:53:39.033Z,101228.88
2022-10-27T22:56:16.062Z,101229.00
2022-10-27T22:58:50.557Z,101230.78
2022-10-27T23:01:26.935Z,101227.38
2022-10-27T23:04:02.925Z,101223.00
2022-10-27T23:06:38.468Z,101231.16
2022-10-27T23:09:16.839Z,101223.09
2022-10-27T23:11:50.614Z,101220.59
2022-10-27T23:14:24.126Z,101230.50
2022-10-27T23:16:59.246Z,101227.09
2022-10-27T23:19:32.729Z,101225.41
2022-10-27T23:22:06.126Z,101222.88
2022-10-27T23:24:41.360Z,101218.44
2022-10-27T23:27:14.898Z,101221.19
2022-10-27T23:29:48.182Z,101217.28
2022-10-27T23:32:21.927Z,101223.25
2022-10-27T23:34:55.127Z,101222.88
2022-10-27T23:37:28.708Z,101220.69
2022-10-27T23:40:03.754Z,101214.66
2022-10-27T23:42:37.291Z,101210.34
2022-10-27T23:45:10.987Z,101215.41
2022-10-27T23:47:44.649Z,101226.56
2022-10-27T23:50:18.334Z,101210.59
2022-10-27T23:52:51.765Z,101211.97
2022-10-27T23:55:26.997Z,101211.53
2022-10-27T23:58:00.707Z,101212.53
